Terminal Aerodrome Forecast
Issued by NWS Missoula, MT

Current Version | Previous Version | Text Only | Print | Product List | Glossary On
Versions: 1 2 3 4 5 6 7 8 9 10 11 12 13 14 15 16 17 18 19
000
FTUS45 KMSO 280520
TAFGPI
TAF
KGPI 280520Z 2806/2906 VRB04KT 2SM FU SKC
     FM282100 20012G20KT 4SM FU SCT100
     FM290100 26005KT 2SM FU SKC=

USA.gov is the U.S. government's official web portal to all federal, state and local government web resources and services.